createdAt,value
2022-11-13T00:00:31.190Z,13.70
2022-11-13T00:06:02.018Z,13.80
2022-11-13T00:11:23.153Z,13.80
2022-11-13T00:16:44.114Z,13.80
2022-11-13T00:22:05.065Z,13.80
2022-11-13T00:27:25.546Z,13.80
2022-11-13T00:32:46.005Z,13.90
2022-11-13T00:38:06.859Z,13.90
2022-11-13T00:43:28.000Z,13.90
2022-11-13T00:48:48.607Z,13.80
2022-11-13T00:54:09.223Z,13.90
2022-11-13T00:59:29.947Z,13.80
2022-11-13T01:04:50.394Z,13.80
2022-11-13T01:10:10.954Z,13.80
2022-11-13T01:15:31.470Z,13.80
2022-11-13T01:20:52.169Z,13.80
2022-11-13T01:26:16.072Z,13.80
2022-11-13T01:31:36.560Z,13.80
2022-11-13T01:36:56.791Z,13.70
2022-11-13T01:42:17.626Z,13.70
2022-11-13T01:47:38.605Z,13.60
2022-11-13T01:52:59.254Z,13.60
2022-11-13T01:58:20.093Z,13.50
2022-11-13T02:03:40.512Z,13.50
2022-11-13T02:09:01.951Z,13.40
2022-11-13T02:14:25.866Z,13.40
2022-11-13T02:19:51.752Z,13.40
2022-11-13T02:25:14.204Z,13.30
2022-11-13T02:30:35.986Z,13.30
2022-11-13T02:35:56.978Z,13.30
2022-11-13T02:41:17.805Z,13.30
2022-11-13T02:46:38.396Z,13.30
2022-11-13T02:51:59.021Z,13.30
2022-11-13T02:57:19.439Z,13.20
2022-11-13T03:02:40.762Z,13.20
2022-11-13T03:08:01.837Z,13.20
2022-11-13T03:13:22.557Z,13.10
2022-11-13T03:18:43.530Z,13.00
2022-11-13T03:24:04.365Z,13.00
2022-11-13T03:29:25.002Z,13.00
2022-11-13T03:34:46.397Z,12.90
2022-11-13T03:40:07.592Z,12.90
2022-11-13T03:45:27.890Z,12.90
2022-11-13T03:50:52.003Z,12.80
2022-11-13T03:56:12.399Z,12.80
2022-11-13T04:01:33.434Z,12.80
2022-11-13T04:06:54.570Z,12.70
2022-11-13T04:12:15.489Z,12.70
2022-11-13T04:17:36.318Z,12.60
2022-11-13T04:22:57.518Z,12.60
2022-11-13T04:28:17.954Z,12.60
2022-11-13T04:33:38.927Z,12.60
2022-11-13T04:38:59.998Z,12.50
2022-11-13T04:44:20.870Z,12.50
2022-11-13T04:49:41.736Z,12.50
2022-11-13T04:55:02.675Z,12.50
2022-11-13T05:00:23.647Z,12.40
2022-11-13T05:05:44.256Z,12.40
2022-11-13T05:11:05.352Z,12.30
2022-11-13T05:16:25.941Z,12.30
2022-11-13T05:21:46.946Z,12.30
2022-11-13T05:27:11.528Z,12.30
2022-11-13T05:32:34.874Z,12.20
2022-11-13T05:37:55.823Z,12.30
2022-11-13T05:43:16.239Z,12.20
2022-11-13T05:48:37.355Z,12.20
2022-11-13T05:53:58.625Z,12.30
2022-11-13T05:59:19.475Z,12.20
2022-11-13T06:04:40.142Z,12.20
2022-11-13T06:10:01.078Z,12.20
2022-11-13T06:15:21.568Z,12.20
2022-11-13T06:20:42.459Z,12.10
2022-11-13T06:26:23.830Z,12.10
2022-11-13T06:31:44.287Z,12.10
2022-11-13T06:37:05.079Z,12.10
2022-11-13T06:42:25.840Z,12.10
2022-11-13T06:47:46.745Z,12.10
2022-11-13T06:53:07.775Z,12.10
2022-11-13T06:58:28.880Z,12.10
2022-11-13T07:03:49.732Z,12.00
2022-11-13T07:09:10.425Z,12.00
2022-11-13T07:14:31.465Z,12.00
2022-11-13T07:19:52.471Z,12.00
2022-11-13T07:25:13.518Z,11.90
2022-11-13T07:30:34.020Z,11.90
2022-11-13T07:35:58.416Z,11.90
2022-11-13T07:41:19.019Z,11.90
2022-11-13T07:46:39.487Z,12.00
2022-11-13T07:51:59.933Z,12.10
2022-11-13T07:57:22.964Z,12.10
2022-11-13T08:02:43.612Z,12.20
2022-11-13T08:08:04.657Z,12.20
2022-11-13T08:13:25.517Z,12.30
2022-11-13T08:18:46.133Z,12.40
2022-11-13T08:24:06.979Z,12.40
2022-11-13T08:29:27.462Z,12.50
2022-11-13T08:34:48.349Z,12.60
2022-11-13T08:40:09.555Z,12.70
2022-11-13T08:45:30.915Z,12.80
2022-11-13T08:50:53.790Z,13.00
2022-11-13T08:56:15.790Z,13.10
2022-11-13T09:01:36.350Z,13.20
2022-11-13T09:06:57.844Z,13.30
2022-11-13T09:12:18.704Z,13.40
2022-11-13T09:17:39.530Z,13.50
2022-11-13T09:23:10.499Z,13.60
2022-11-13T09:28:31.194Z,13.70
2022-11-13T09:33:52.207Z,13.80
2022-11-13T09:39:13.258Z,13.90
2022-11-13T09:44:43.015Z,14.00
2022-11-13T09:50:07.442Z,14.10
2022-11-13T09:55:34.216Z,14.20
2022-11-13T10:00:55.151Z,14.30
2022-11-13T10:06:43.706Z,14.40
2022-11-13T10:12:07.748Z,14.60
2022-11-13T10:17:46.936Z,14.70
2022-11-13T10:23:21.684Z,14.80
2022-11-13T10:28:51.297Z,15.00
2022-11-13T10:34:13.918Z,15.20
2022-11-13T10:39:44.661Z,15.40
2022-11-13T10:45:13.552Z,15.60
2022-11-13T10:50:35.688Z,15.90
2022-11-13T10:55:59.357Z,16.20
2022-11-13T11:01:23.960Z,16.50
2022-11-13T11:12:30.872Z,17.00
2022-11-13T11:18:26.549Z,16.90
2022-11-13T11:23:54.714Z,16.80
2022-11-13T11:29:28.453Z,16.70
2022-11-13T11:35:08.207Z,16.90
2022-11-13T11:40:38.286Z,17.50
2022-11-13T11:45:58.641Z,17.70
2022-11-13T11:51:42.993Z,18.00
2022-11-13T11:57:17.688Z,18.20
2022-11-13T12:02:40.867Z,18.40
2022-11-13T12:08:26.304Z,18.40
2022-11-13T12:14:06.551Z,18.50
2022-11-13T12:20:07.626Z,18.80
2022-11-13T12:26:11.916Z,19.10
2022-11-13T12:31:39.438Z,19.50
2022-11-13T12:37:05.555Z,19.70
2022-11-13T12:42:40.956Z,19.70
2022-11-13T12:48:21.793Z,19.90
2022-11-13T12:53:51.643Z,19.90
2022-11-13T12:59:33.800Z,20.00
2022-11-13T13:05:07.591Z,20.30
2022-11-13T13:10:50.965Z,20.40
2022-11-13T13:16:12.112Z,20.10
2022-11-13T13:21:42.362Z,20.20
2022-11-13T13:27:20.577Z,20.20
2022-11-13T13:32:58.931Z,19.90
2022-11-13T13:38:35.223Z,19.30
2022-11-13T13:44:10.777Z,18.80
2022-11-13T13:49:32.633Z,18.60
2022-11-13T13:54:53.607Z,18.80
2022-11-13T14:00:17.325Z,19.10
2022-11-13T14:05:38.238Z,19.10
2022-11-13T14:10:58.627Z,19.20
2022-11-13T14:16:19.165Z,19.10
2022-11-13T14:21:39.695Z,18.90
2022-11-13T14:27:05.286Z,18.60
2022-11-13T14:32:29.090Z,18.30
2022-11-13T14:37:50.281Z,18.10
2022-11-13T14:43:18.778Z,17.90
2022-11-13T14:48:39.678Z,17.90
2022-11-13T14:54:08.762Z,17.80
2022-11-13T14:59:29.888Z,17.70
2022-11-13T15:04:50.708Z,17.60
2022-11-13T15:10:16.753Z,17.40
2022-11-13T15:15:37.562Z,17.30
2022-11-13T15:20:58.783Z,17.20
2022-11-13T15:26:19.829Z,17.30
2022-11-13T15:31:45.072Z,17.40
2022-11-13T15:37:13.330Z,17.50
2022-11-13T15:42:35.782Z,17.60
2022-11-13T15:47:56.615Z,17.70
2022-11-13T15:53:17.530Z,17.60
2022-11-13T15:58:38.260Z,17.50
2022-11-13T16:04:02.311Z,17.40
2022-11-13T16:09:23.194Z,17.40
2022-11-13T16:14:44.501Z,17.20
2022-11-13T16:20:07.957Z,17.00
2022-11-13T16:25:28.732Z,16.90
2022-11-13T16:30:50.309Z,16.70
2022-11-13T16:36:21.891Z,16.50
2022-11-13T16:41:42.403Z,16.40
2022-11-13T16:47:05.015Z,16.20
2022-11-13T16:52:26.919Z,16.10
2022-11-13T16:57:47.693Z,15.90
2022-11-13T17:03:08.520Z,15.80
2022-11-13T17:08:29.290Z,15.70
2022-11-13T17:13:52.038Z,15.60
2022-11-13T17:19:15.189Z,15.60
2022-11-13T17:24:36.011Z,15.50
2022-11-13T17:29:57.005Z,15.40
2022-11-13T17:35:17.956Z,15.40
2022-11-13T17:40:38.457Z,15.30
2022-11-13T17:45:59.377Z,15.20
2022-11-13T17:51:20.496Z,15.20
2022-11-13T17:56:42.916Z,15.10
2022-11-13T18:02:03.456Z,15.10
2022-11-13T18:07:24.128Z,15.00
2022-11-13T18:12:45.036Z,15.00
2022-11-13T18:18:07.468Z,14.90
2022-11-13T18:23:28.458Z,14.90
2022-11-13T18:28:49.022Z,14.90
2022-11-13T18:34:12.814Z,14.90
2022-11-13T18:39:33.636Z,14.80
2022-11-13T18:44:54.734Z,14.80
2022-11-13T18:50:15.607Z,14.80
2022-11-13T18:55:36.382Z,14.70
2022-11-13T19:01:07.360Z,14.70
2022-11-13T19:06:28.459Z,14.70
2022-11-13T19:11:51.237Z,14.70
2022-11-13T19:17:11.958Z,14.60
2022-11-13T19:22:32.796Z,14.60
2022-11-13T19:27:54.369Z,14.50
2022-11-13T19:33:15.253Z,14.60
2022-11-13T19:38:37.057Z,14.60
2022-11-13T19:43:59.806Z,14.50
2022-11-13T19:49:20.694Z,14.50
2022-11-13T19:54:42.139Z,14.40
2022-11-13T20:00:03.367Z,14.40
2022-11-13T20:05:24.099Z,14.30
2022-11-13T20:10:45.106Z,14.30
2022-11-13T20:16:07.669Z,14.20
2022-11-13T20:21:30.764Z,14.20
2022-11-13T20:26:51.357Z,14.20
2022-11-13T20:32:12.489Z,14.10
2022-11-13T20:37:33.643Z,14.10
2022-11-13T20:42:54.499Z,14.10
2022-11-13T20:48:15.666Z,14.10
2022-11-13T20:53:36.417Z,14.10
2022-11-13T20:58:57.384Z,14.00
2022-11-13T21:04:18.506Z,14.00
2022-11-13T21:09:38.962Z,13.90
2022-11-13T21:14:59.951Z,13.90
2022-11-13T21:20:21.046Z,13.90
2022-11-13T21:25:42.108Z,13.90
2022-11-13T21:31:19.413Z,13.80
2022-11-13T21:36:40.076Z,13.80
2022-11-13T21:42:01.110Z,13.70
2022-11-13T21:47:22.086Z,13.70
2022-11-13T21:52:42.427Z,13.70
2022-11-13T21:58:02.901Z,13.60
2022-11-13T22:03:23.726Z,13.60
2022-11-13T22:08:46.058Z,13.60
2022-11-13T22:14:07.102Z,13.60
2022-11-13T22:19:32.231Z,13.60
2022-11-13T22:24:55.501Z,13.60
2022-11-13T22:30:16.276Z,13.50
2022-11-13T22:35:36.769Z,13.50
2022-11-13T22:41:03.372Z,13.50
2022-11-13T22:46:25.386Z,13.50
2022-11-13T22:51:46.066Z,13.60
2022-11-13T22:57:07.072Z,13.60
2022-11-13T23:02:28.085Z,13.60
2022-11-13T23:07:49.798Z,13.60
2022-11-13T23:13:10.540Z,13.50
2022-11-13T23:18:32.645Z,13.50
2022-11-13T23:23:54.345Z,13.50
2022-11-13T23:29:15.057Z,13.50
2022-11-13T23:34:58.060Z,13.50
2022-11-13T23:40:16.487Z,13.60
2022-11-13T23:45:37.533Z,13.60
2022-11-13T23:51:02.215Z,13.70
2022-11-13T23:56:22.802Z,13.70
